sensor_id;sensor_type;location;lat;lon;timestamp;temperature;humidity
9323;DHT22;4700;48.822;9.270;2023-07-28T00:00:05;17.20;1.00
9323;DHT22;4700;48.822;9.270;2023-07-28T00:02:52;17.00;1.00
9323;DHT22;4700;48.822;9.270;2023-07-28T00:05:38;17.00;1.00
9323;DHT22;4700;48.822;9.270;2023-07-28T00:11:14;16.90;1.00
9323;DHT22;4700;48.822;9.270;2023-07-28T00:22:00;16.80;1.00
9323;DHT22;4700;48.822;9.270;2023-07-28T00:27:41;16.50;1.00
9323;DHT22;4700;48.822;9.270;2023-07-28T00:30:25;17.00;1.00
9323;DHT22;4700;48.822;9.270;2023-07-28T00:33:11;16.90;1.00
9323;DHT22;4700;48.822;9.270;2023-07-28T00:38:44;17.00;1.00
9323;DHT22;4700;48.822;9.270;2023-07-28T00:41:30;17.00;1.00
9323;DHT22;4700;48.822;9.270;2023-07-28T00:44:16;17.10;1.00
9323;DHT22;4700;48.822;9.270;2023-07-28T00:47:02;17.10;1.00
9323;DHT22;4700;48.822;9.270;2023-07-28T00:49:48;17.30;1.00
9323;DHT22;4700;48.822;9.270;2023-07-28T00:55:11;17.30;1.00
9323;DHT22;4700;48.822;9.270;2023-07-28T01:03:20;17.30;1.00
9323;DHT22;4700;48.822;9.270;2023-07-28T01:09:02;17.30;1.00
9323;DHT22;4700;48.822;9.270;2023-07-28T01:11:56;17.30;1.00
9323;DHT22;4700;48.822;9.270;2023-07-28T01:14:43;17.30;1.00
9323;DHT22;4700;48.822;9.270;2023-07-28T01:17:30;17.40;1.00
9323;DHT22;4700;48.822;9.270;2023-07-28T01:20:16;17.40;1.00
9323;DHT22;4700;48.822;9.270;2023-07-28T01:23:11;17.40;1.00
9323;DHT22;4700;48.822;9.270;2023-07-28T01:26:03;17.50;1.00
9323;DHT22;4700;48.822;9.270;2023-07-28T01:28:52;17.40;1.00
9323;DHT22;4700;48.822;9.270;2023-07-28T01:31:39;17.40;1.00
9323;DHT22;4700;48.822;9.270;2023-07-28T01:34:25;17.50;1.00
9323;DHT22;4700;48.822;9.270;2023-07-28T01:37:11;17.30;1.00
9323;DHT22;4700;48.822;9.270;2023-07-28T01:39:57;17.40;1.00
9323;DHT22;4700;48.822;9.270;2023-07-28T01:42:43;17.40;1.00
9323;DHT22;4700;48.822;9.270;2023-07-28T01:45:30;17.40;1.00
9323;DHT22;4700;48.822;9.270;2023-07-28T01:48:18;17.50;1.00
9323;DHT22;4700;48.822;9.270;2023-07-28T01:51:04;17.50;1.00
9323;DHT22;4700;48.822;9.270;2023-07-28T01:53:51;17.50;1.00
9323;DHT22;4700;48.822;9.270;2023-07-28T02:04:56;17.70;1.00
9323;DHT22;4700;48.822;9.270;2023-07-28T02:07:42;17.60;1.00
9323;DHT22;4700;48.822;9.270;2023-07-28T02:10:30;17.40;1.00
9323;DHT22;4700;48.822;9.270;2023-07-28T03:06:20;16.90;1.00
9323;DHT22;4700;48.822;9.270;2023-07-28T03:09:06;16.90;1.00
9323;DHT22;4700;48.822;9.270;2023-07-28T03:11:51;16.90;1.00
9323;DHT22;4700;48.822;9.270;2023-07-28T03:14:37;17.00;1.00
9323;DHT22;4700;48.822;9.270;2023-07-28T03:17:23;16.90;1.00
9323;DHT22;4700;48.822;9.270;2023-07-28T03:20:10;16.90;1.00
9323;DHT22;4700;48.822;9.270;2023-07-28T03:22:57;16.90;1.00
9323;DHT22;4700;48.822;9.270;2023-07-28T03:25:42;17.00;1.00
9323;DHT22;4700;48.822;9.270;2023-07-28T03:28:29;17.00;1.00
9323;DHT22;4700;48.822;9.270;2023-07-28T03:31:14;17.00;1.00
9323;DHT22;4700;48.822;9.270;2023-07-28T03:34:00;17.20;1.00
9323;DHT22;4700;48.822;9.270;2023-07-28T03:36:46;17.00;1.00
9323;DHT22;4700;48.822;9.270;2023-07-28T03:39:33;17.10;1.00
9323;DHT22;4700;48.822;9.270;2023-07-28T03:42:19;17.10;1.00
9323;DHT22;4700;48.822;9.270;2023-07-28T03:45:06;17.20;1.00
9323;DHT22;4700;48.822;9.270;2023-07-28T03:47:51;17.20;1.00
9323;DHT22;4700;48.822;9.270;2023-07-28T03:50:37;17.30;1.00
9323;DHT22;4700;48.822;9.270;2023-07-28T03:53:26;17.30;1.00
9323;DHT22;4700;48.822;9.270;2023-07-28T03:56:13;17.40;1.00
9323;DHT22;4700;48.822;9.270;2023-07-28T03:58:59;17.40;1.00
9323;DHT22;4700;48.822;9.270;2023-07-28T04:01:45;17.60;1.00
9323;DHT22;4700;48.822;9.270;2023-07-28T04:04:34;17.60;1.00
9323;DHT22;4700;48.822;9.270;2023-07-28T04:07:20;17.70;1.00
9323;DHT22;4700;48.822;9.270;2023-07-28T04:10:07;17.70;1.00
9323;DHT22;4700;48.822;9.270;2023-07-28T04:12:54;17.60;1.00
9323;DHT22;4700;48.822;9.270;2023-07-28T04:15:40;17.70;1.00
9323;DHT22;4700;48.822;9.270;2023-07-28T04:18:26;17.70;1.00
9323;DHT22;4700;48.822;9.270;2023-07-28T04:23:58;17.80;1.00
9323;DHT22;4700;48.822;9.270;2023-07-28T04:26:43;17.80;1.00
9323;DHT22;4700;48.822;9.270;2023-07-28T04:29:34;17.90;1.00
9323;DHT22;4700;48.822;9.270;2023-07-28T04:32:20;18.00;1.00
9323;DHT22;4700;48.822;9.270;2023-07-28T04:35:06;17.90;1.00
9323;DHT22;4700;48.822;9.270;2023-07-28T04:37:52;18.00;1.00
9323;DHT22;4700;48.822;9.270;2023-07-28T04:40:38;18.00;1.00
9323;DHT22;4700;48.822;9.270;2023-07-28T04:43:24;18.00;1.00
9323;DHT22;4700;48.822;9.270;2023-07-28T04:46:11;18.00;1.00
9323;DHT22;4700;48.822;9.270;2023-07-28T04:48:57;17.90;1.00
9323;DHT22;4700;48.822;9.270;2023-07-28T04:51:42;17.90;1.00
9323;DHT22;4700;48.822;9.270;2023-07-28T04:54:28;18.00;1.00
9323;DHT22;4700;48.822;9.270;2023-07-28T04:57:14;17.90;1.00
9323;DHT22;4700;48.822;9.270;2023-07-28T04:59:59;18.00;1.00
9323;DHT22;4700;48.822;9.270;2023-07-28T05:02:46;18.10;1.00
9323;DHT22;4700;48.822;9.270;2023-07-28T05:05:32;18.20;1.00
9323;DHT22;4700;48.822;9.270;2023-07-28T05:08:18;18.20;1.00
9323;DHT22;4700;48.822;9.270;2023-07-28T05:11:04;18.20;1.00
9323;DHT22;4700;48.822;9.270;2023-07-28T05:13:49;17.70;1.00
9323;DHT22;4700;48.822;9.270;2023-07-28T05:16:35;17.70;1.00
9323;DHT22;4700;48.822;9.270;2023-07-28T05:19:25;17.50;1.00
9323;DHT22;4700;48.822;9.270;2023-07-28T05:24:56;17.10;1.00
9323;DHT22;4700;48.822;9.270;2023-07-28T05:27:42;17.30;1.00
9323;DHT22;4700;48.822;9.270;2023-07-28T05:30:28;17.30;1.00
9323;DHT22;4700;48.822;9.270;2023-07-28T05:33:14;17.40;1.00
9323;DHT22;4700;48.822;9.270;2023-07-28T05:36:01;17.40;1.00
9323;DHT22;4700;48.822;9.270;2023-07-28T05:38:49;17.60;1.00
9323;DHT22;4700;48.822;9.270;2023-07-28T05:41:36;17.40;1.00
9323;DHT22;4700;48.822;9.270;2023-07-28T05:44:21;17.30;1.00
9323;DHT22;4700;48.822;9.270;2023-07-28T05:47:07;17.40;1.00
9323;DHT22;4700;48.822;9.270;2023-07-28T05:49:53;17.50;1.00
9323;DHT22;4700;48.822;9.270;2023-07-28T05:52:40;17.60;1.00
9323;DHT22;4700;48.822;9.270;2023-07-28T05:55:26;17.70;1.00
9323;DHT22;4700;48.822;9.270;2023-07-28T05:58:12;18.10;1.00
9323;DHT22;4700;48.822;9.270;2023-07-28T06:00:58;17.80;1.00
9323;DHT22;4700;48.822;9.270;2023-07-28T06:03:44;17.70;1.00
9323;DHT22;4700;48.822;9.270;2023-07-28T06:06:29;17.80;1.00
9323;DHT22;4700;48.822;9.270;2023-07-28T06:09:16;17.90;1.00
9323;DHT22;4700;48.822;9.270;2023-07-28T06:12:02;17.80;1.00
9323;DHT22;4700;48.822;9.270;2023-07-28T06:14:52;17.90;1.00
9323;DHT22;4700;48.822;9.270;2023-07-28T06:17:37;17.80;1.00
9323;DHT22;4700;48.822;9.270;2023-07-28T06:20:23;17.80;1.00
9323;DHT22;4700;48.822;9.270;2023-07-28T06:23:09;17.80;1.00
9323;DHT22;4700;48.822;9.270;2023-07-28T06:28:42;17.70;1.00
9323;DHT22;4700;48.822;9.270;2023-07-28T06:31:28;17.90;1.00
9323;DHT22;4700;48.822;9.270;2023-07-28T06:34:17;17.80;1.00
9323;DHT22;4700;48.822;9.270;2023-07-28T06:37:03;17.80;1.00
9323;DHT22;4700;48.822;9.270;2023-07-28T06:39:49;17.80;1.00
9323;DHT22;4700;48.822;9.270;2023-07-28T06:42:36;17.80;1.00
9323;DHT22;4700;48.822;9.270;2023-07-28T06:45:22;17.80;1.00
9323;DHT22;4700;48.822;9.270;2023-07-28T06:48:08;18.00;1.00
9323;DHT22;4700;48.822;9.270;2023-07-28T06:50:54;17.90;1.00
9323;DHT22;4700;48.822;9.270;2023-07-28T06:53:40;18.10;1.00
9323;DHT22;4700;48.822;9.270;2023-07-28T06:56:25;18.10;1.00
9323;DHT22;4700;48.822;9.270;2023-07-28T06:59:14;17.80;1.00
9323;DHT22;4700;48.822;9.270;2023-07-28T07:02:00;17.80;1.00
9323;DHT22;4700;48.822;9.270;2023-07-28T07:04:45;17.90;1.00
9323;DHT22;4700;48.822;9.270;2023-07-28T07:07:31;18.20;1.00
9323;DHT22;4700;48.822;9.270;2023-07-28T07:10:17;18.50;1.00
9323;DHT22;4700;48.822;9.270;2023-07-28T07:13:03;18.70;1.00
9323;DHT22;4700;48.822;9.270;2023-07-28T07:15:50;18.80;1.00
9323;DHT22;4700;48.822;9.270;2023-07-28T07:18:36;17.80;1.00
9323;DHT22;4700;48.822;9.270;2023-07-28T07:21:22;18.00;1.00
9323;DHT22;4700;48.822;9.270;2023-07-28T07:24:08;17.90;1.00
9323;DHT22;4700;48.822;9.270;2023-07-28T07:29:44;18.00;1.00
9323;DHT22;4700;48.822;9.270;2023-07-28T07:32:32;18.30;1.00
9323;DHT22;4700;48.822;9.270;2023-07-28T07:35:18;18.20;1.00
9323;DHT22;4700;48.822;9.270;2023-07-28T07:38:04;18.40;1.00
9323;DHT22;4700;48.822;9.270;2023-07-28T07:40:53;18.30;1.00
9323;DHT22;4700;48.822;9.270;2023-07-28T07:43:39;18.60;1.00
9323;DHT22;4700;48.822;9.270;2023-07-28T07:46:24;18.60;1.00
9323;DHT22;4700;48.822;9.270;2023-07-28T07:49:11;18.90;1.00
9323;DHT22;4700;48.822;9.270;2023-07-28T07:51:57;19.20;1.00
9323;DHT22;4700;48.822;9.270;2023-07-28T07:54:43;19.50;1.00
9323;DHT22;4700;48.822;9.270;2023-07-28T07:57:29;19.70;1.00
9323;DHT22;4700;48.822;9.270;2023-07-28T08:00:18;20.00;1.00
9323;DHT22;4700;48.822;9.270;2023-07-28T08:03:06;20.00;1.00
9323;DHT22;4700;48.822;9.270;2023-07-28T08:05:54;20.30;1.00
9323;DHT22;4700;48.822;9.270;2023-07-28T08:08:39;20.30;1.00
9323;DHT22;4700;48.822;9.270;2023-07-28T08:11:28;20.50;1.00
9323;DHT22;4700;48.822;9.270;2023-07-28T08:14:14;20.70;1.00
9323;DHT22;4700;48.822;9.270;2023-07-28T08:17:05;20.90;1.00
9323;DHT22;4700;48.822;9.270;2023-07-28T08:19:51;21.10;1.00
9323;DHT22;4700;48.822;9.270;2023-07-28T08:22:38;20.60;1.00
9323;DHT22;4700;48.822;9.270;2023-07-28T08:25:24;21.00;1.00
9323;DHT22;4700;48.822;9.270;2023-07-28T08:30:56;20.90;1.00
9323;DHT22;4700;48.822;9.270;2023-07-28T08:33:42;20.80;1.00
9323;DHT22;4700;48.822;9.270;2023-07-28T08:36:28;20.90;1.00
9323;DHT22;4700;48.822;9.270;2023-07-28T08:39:15;20.90;1.00
9323;DHT22;4700;48.822;9.270;2023-07-28T08:42:02;20.90;1.00
9323;DHT22;4700;48.822;9.270;2023-07-28T08:44:48;21.00;1.00
9323;DHT22;4700;48.822;9.270;2023-07-28T08:47:37;21.00;1.00
9323;DHT22;4700;48.822;9.270;2023-07-28T08:50:23;21.10;1.00
9323;DHT22;4700;48.822;9.270;2023-07-28T08:53:08;21.00;1.00
9323;DHT22;4700;48.822;9.270;2023-07-28T08:55:55;20.90;1.00
9323;DHT22;4700;48.822;9.270;2023-07-28T08:58:41;21.00;1.00
9323;DHT22;4700;48.822;9.270;2023-07-28T09:01:27;21.00;1.00
9323;DHT22;4700;48.822;9.270;2023-07-28T09:04:12;20.90;1.00
9323;DHT22;4700;48.822;9.270;2023-07-28T09:06:58;21.10;1.00
9323;DHT22;4700;48.822;9.270;2023-07-28T09:09:44;21.40;1.00
9323;DHT22;4700;48.822;9.270;2023-07-28T09:12:35;21.00;1.00
9323;DHT22;4700;48.822;9.270;2023-07-28T09:18:25;21.20;1.00
9323;DHT22;4700;48.822;9.270;2023-07-28T09:21:16;21.80;1.00
9323;DHT22;4700;48.822;9.270;2023-07-28T09:24:04;21.80;1.00
9323;DHT22;4700;48.822;9.270;2023-07-28T09:29:37;22.40;1.00
9323;DHT22;4700;48.822;9.270;2023-07-28T09:32:27;24.50;1.00
9323;DHT22;4700;48.822;9.270;2023-07-28T09:35:15;24.00;1.00
9323;DHT22;4700;48.822;9.270;2023-07-28T09:38:01;24.70;1.00
9323;DHT22;4700;48.822;9.270;2023-07-28T09:40:48;26.20;1.00
9323;DHT22;4700;48.822;9.270;2023-07-28T09:43:35;26.40;1.00
9323;DHT22;4700;48.822;9.270;2023-07-28T09:46:23;28.30;1.00
9323;DHT22;4700;48.822;9.270;2023-07-28T09:49:10;28.60;1.00
9323;DHT22;4700;48.822;9.270;2023-07-28T09:52:02;28.30;1.00
9323;DHT22;4700;48.822;9.270;2023-07-28T09:54:52;27.70;1.00
9323;DHT22;4700;48.822;9.270;2023-07-28T09:57:44;27.50;1.00
9323;DHT22;4700;48.822;9.270;2023-07-28T10:00:30;27.70;1.00
9323;DHT22;4700;48.822;9.270;2023-07-28T10:03:18;27.90;1.00
9323;DHT22;4700;48.822;9.270;2023-07-28T10:06:04;27.50;1.00
9323;DHT22;4700;48.822;9.270;2023-07-28T10:08:57;26.90;1.00
9323;DHT22;4700;48.822;9.270;2023-07-28T10:11:44;26.70;1.00
9323;DHT22;4700;48.822;9.270;2023-07-28T10:14:32;26.40;1.00
9323;DHT22;4700;48.822;9.270;2023-07-28T10:17:21;25.60;1.00
9323;DHT22;4700;48.822;9.270;2023-07-28T10:20:38;25.30;1.00
9323;DHT22;4700;48.822;9.270;2023-07-28T10:23:24;24.80;1.00
9323;DHT22;4700;48.822;9.270;2023-07-28T10:26:13;24.90;1.00
9323;DHT22;4700;48.822;9.270;2023-07-28T10:28:43;23.40;1.00
9323;DHT22;4700;48.822;9.270;2023-07-28T10:31:30;24.50;1.00
9323;DHT22;4700;48.822;9.270;2023-07-28T10:34:16;24.30;1.00
9323;DHT22;4700;48.822;9.270;2023-07-28T10:37:03;24.50;1.00
9323;DHT22;4700;48.822;9.270;2023-07-28T10:40:33;24.30;1.00
9323;DHT22;4700;48.822;9.270;2023-07-28T10:43:19;24.30;1.00
9323;DHT22;4700;48.822;9.270;2023-07-28T10:46:05;23.70;1.00
9323;DHT22;4700;48.822;9.270;2023-07-28T10:48:54;23.50;1.00
9323;DHT22;4700;48.822;9.270;2023-07-28T10:51:40;23.50;1.00
9323;DHT22;4700;48.822;9.270;2023-07-28T10:54:31;23.30;1.00
9323;DHT22;4700;48.822;9.270;2023-07-28T10:57:16;23.50;1.00
9323;DHT22;4700;48.822;9.270;2023-07-28T11:00:07;23.20;1.00
9323;DHT22;4700;48.822;9.270;2023-07-28T11:02:54;23.40;1.00
9323;DHT22;4700;48.822;9.270;2023-07-28T11:05:42;23.40;1.00
9323;DHT22;4700;48.822;9.270;2023-07-28T11:08:32;23.40;1.00
9323;DHT22;4700;48.822;9.270;2023-07-28T11:11:21;23.40;1.00
9323;DHT22;4700;48.822;9.270;2023-07-28T11:14:07;23.50;1.00
9323;DHT22;4700;48.822;9.270;2023-07-28T11:16:53;23.40;1.00
9323;DHT22;4700;48.822;9.270;2023-07-28T11:19:40;23.60;1.00
9323;DHT22;4700;48.822;9.270;2023-07-28T11:22:28;24.70;1.00
9323;DHT22;4700;48.822;9.270;2023-07-28T11:25:14;24.00;1.00
9323;DHT22;4700;48.822;9.270;2023-07-28T11:33:36;25.00;1.00
9323;DHT22;4700;48.822;9.270;2023-07-28T11:36:23;26.20;1.00
9323;DHT22;4700;48.822;9.270;2023-07-28T11:39:09;27.10;1.00
9323;DHT22;4700;48.822;9.270;2023-07-28T11:41:56;27.20;1.00
9323;DHT22;4700;48.822;9.270;2023-07-28T11:44:44;27.10;1.00
9323;DHT22;4700;48.822;9.270;2023-07-28T11:47:30;27.10;1.00
9323;DHT22;4700;48.822;9.270;2023-07-28T11:50:22;27.20;1.00
9323;DHT22;4700;48.822;9.270;2023-07-28T11:53:09;27.70;1.00
9323;DHT22;4700;48.822;9.270;2023-07-28T11:55:58;27.20;1.00
9323;DHT22;4700;48.822;9.270;2023-07-28T11:58:50;27.70;1.00
9323;DHT22;4700;48.822;9.270;2023-07-28T12:01:54;27.60;1.00
9323;DHT22;4700;48.822;9.270;2023-07-28T12:04:40;27.60;1.00
9323;DHT22;4700;48.822;9.270;2023-07-28T12:07:29;27.70;1.00
9323;DHT22;4700;48.822;9.270;2023-07-28T12:10:15;28.30;1.00
9323;DHT22;4700;48.822;9.270;2023-07-28T12:13:06;26.90;1.00
9323;DHT22;4700;48.822;9.270;2023-07-28T12:15:52;26.90;1.00
9323;DHT22;4700;48.822;9.270;2023-07-28T12:18:39;27.50;1.00
9323;DHT22;4700;48.822;9.270;2023-07-28T12:21:25;26.10;1.00
9323;DHT22;4700;48.822;9.270;2023-07-28T12:24:10;26.00;1.00
9323;DHT22;4700;48.822;9.270;2023-07-28T12:26:56;24.90;1.00
9323;DHT22;4700;48.822;9.270;2023-07-28T12:29:42;25.30;1.00
9323;DHT22;4700;48.822;9.270;2023-07-28T12:32:30;24.90;1.00
9323;DHT22;4700;48.822;9.270;2023-07-28T12:35:19;24.80;1.00
9323;DHT22;4700;48.822;9.270;2023-07-28T12:38:09;24.40;1.00
9323;DHT22;4700;48.822;9.270;2023-07-28T12:40:57;24.20;1.00
9323;DHT22;4700;48.822;9.270;2023-07-28T12:43:43;24.20;1.00
9323;DHT22;4700;48.822;9.270;2023-07-28T12:46:29;23.90;1.00
9323;DHT22;4700;48.822;9.270;2023-07-28T12:49:15;23.80;1.00
9323;DHT22;4700;48.822;9.270;2023-07-28T12:52:05;24.10;1.00
9323;DHT22;4700;48.822;9.270;2023-07-28T12:54:52;24.20;1.00
9323;DHT22;4700;48.822;9.270;2023-07-28T12:57:37;24.00;1.00
9323;DHT22;4700;48.822;9.270;2023-07-28T13:00:23;24.30;1.00
9323;DHT22;4700;48.822;9.270;2023-07-28T13:03:09;24.30;1.00
9323;DHT22;4700;48.822;9.270;2023-07-28T13:05:55;25.40;1.00
9323;DHT22;4700;48.822;9.270;2023-07-28T13:08:43;24.40;1.00
9323;DHT22;4700;48.822;9.270;2023-07-28T13:11:28;24.50;1.00
9323;DHT22;4700;48.822;9.270;2023-07-28T13:14:14;24.90;1.00
9323;DHT22;4700;48.822;9.270;2023-07-28T13:16:59;24.60;1.00
9323;DHT22;4700;48.822;9.270;2023-07-28T13:19:47;24.60;1.00
9323;DHT22;4700;48.822;9.270;2023-07-28T13:22:33;24.60;1.00
9323;DHT22;4700;48.822;9.270;2023-07-28T13:25:20;24.70;1.00
9323;DHT22;4700;48.822;9.270;2023-07-28T13:30:52;24.10;1.00
9323;DHT22;4700;48.822;9.270;2023-07-28T13:33:41;24.30;1.00
9323;DHT22;4700;48.822;9.270;2023-07-28T13:36:26;24.20;1.00
9323;DHT22;4700;48.822;9.270;2023-07-28T13:39:12;24.20;1.00
9323;DHT22;4700;48.822;9.270;2023-07-28T13:41:59;24.10;1.00
9323;DHT22;4700;48.822;9.270;2023-07-28T13:44:45;24.00;1.00
9323;DHT22;4700;48.822;9.270;2023-07-28T13:47:30;23.60;1.00
9323;DHT22;4700;48.822;9.270;2023-07-28T13:50:16;22.80;1.00
9323;DHT22;4700;48.822;9.270;2023-07-28T13:53:01;22.40;1.00
9323;DHT22;4700;48.822;9.270;2023-07-28T13:55:54;22.00;1.00
9323;DHT22;4700;48.822;9.270;2023-07-28T13:58:41;21.80;1.00
9323;DHT22;4700;48.822;9.270;2023-07-28T14:01:27;20.90;1.00
9323;DHT22;4700;48.822;9.270;2023-07-28T14:04:12;20.50;1.00
9323;DHT22;4700;48.822;9.270;2023-07-28T14:07:00;20.30;1.00
9323;DHT22;4700;48.822;9.270;2023-07-28T14:09:46;20.20;1.00
9323;DHT22;4700;48.822;9.270;2023-07-28T14:12:31;19.60;1.00
9323;DHT22;4700;48.822;9.270;2023-07-28T14:15:19;19.40;1.00
9323;DHT22;4700;48.822;9.270;2023-07-28T14:18:05;19.30;1.00
9323;DHT22;4700;48.822;9.270;2023-07-28T14:20:50;19.20;1.00
9323;DHT22;4700;48.822;9.270;2023-07-28T14:23:36;18.60;1.00
9323;DHT22;4700;48.822;9.270;2023-07-28T14:26:22;18.50;1.00
9323;DHT22;4700;48.822;9.270;2023-07-28T14:34:44;18.30;1.00
9323;DHT22;4700;48.822;9.270;2023-07-28T14:37:32;18.50;1.00
9323;DHT22;4700;48.822;9.270;2023-07-28T14:40:18;18.90;1.00
9323;DHT22;4700;48.822;9.270;2023-07-28T14:43:04;18.90;1.00
9323;DHT22;4700;48.822;9.270;2023-07-28T14:45:50;19.80;1.00
9323;DHT22;4700;48.822;9.270;2023-07-28T14:48:37;19.40;1.00
9323;DHT22;4700;48.822;9.270;2023-07-28T14:51:23;19.30;1.00
9323;DHT22;4700;48.822;9.270;2023-07-28T14:54:08;19.20;1.00
9323;DHT22;4700;48.822;9.270;2023-07-28T14:56:54;19.40;1.00
9323;DHT22;4700;48.822;9.270;2023-07-28T14:59:39;19.30;1.00
9323;DHT22;4700;48.822;9.270;2023-07-28T15:02:27;19.40;1.00
9323;DHT22;4700;48.822;9.270;2023-07-28T15:05:17;19.60;1.00
9323;DHT22;4700;48.822;9.270;2023-07-28T15:08:03;19.40;1.00
9323;DHT22;4700;48.822;9.270;2023-07-28T15:10:49;19.50;1.00
9323;DHT22;4700;48.822;9.270;2023-07-28T15:13:35;19.80;1.00
9323;DHT22;4700;48.822;9.270;2023-07-28T15:16:21;19.60;1.00
9323;DHT22;4700;48.822;9.270;2023-07-28T15:19:07;19.80;1.00
9323;DHT22;4700;48.822;9.270;2023-07-28T15:21:54;19.70;1.00
9323;DHT22;4700;48.822;9.270;2023-07-28T15:24:41;19.80;1.00
9323;DHT22;4700;48.822;9.270;2023-07-28T15:30:12;18.60;1.00
9323;DHT22;4700;48.822;9.270;2023-07-28T15:32:58;19.90;1.00
9323;DHT22;4700;48.822;9.270;2023-07-28T15:35:44;20.00;1.00
9323;DHT22;4700;48.822;9.270;2023-07-28T15:38:31;20.10;1.00
9323;DHT22;4700;48.822;9.270;2023-07-28T15:41:17;20.20;1.00
9323;DHT22;4700;48.822;9.270;2023-07-28T15:44:03;20.30;1.00
9323;DHT22;4700;48.822;9.270;2023-07-28T15:46:52;20.40;1.00
9323;DHT22;4700;48.822;9.270;2023-07-28T15:52:24;20.20;1.00
9323;DHT22;4700;48.822;9.270;2023-07-28T15:55:13;20.20;1.00
9323;DHT22;4700;48.822;9.270;2023-07-28T15:57:58;20.10;1.00
9323;DHT22;4700;48.822;9.270;2023-07-28T16:00:44;19.70;1.00
9323;DHT22;4700;48.822;9.270;2023-07-28T16:03:30;19.80;1.00
9323;DHT22;4700;48.822;9.270;2023-07-28T16:06:16;19.80;1.00
9323;DHT22;4700;48.822;9.270;2023-07-28T16:09:05;19.80;1.00
9323;DHT22;4700;48.822;9.270;2023-07-28T16:11:52;19.80;1.00
9323;DHT22;4700;48.822;9.270;2023-07-28T16:14:38;19.80;1.00
9323;DHT22;4700;48.822;9.270;2023-07-28T16:17:23;19.80;1.00
9323;DHT22;4700;48.822;9.270;2023-07-28T16:20:09;19.80;1.00
9323;DHT22;4700;48.822;9.270;2023-07-28T16:22:55;19.90;1.00
9323;DHT22;4700;48.822;9.270;2023-07-28T16:25:41;19.80;1.00
9323;DHT22;4700;48.822;9.270;2023-07-28T16:28:32;19.70;1.00
9323;DHT22;4700;48.822;9.270;2023-07-28T16:31:18;19.60;1.00
9323;DHT22;4700;48.822;9.270;2023-07-28T16:34:04;19.70;1.00
9323;DHT22;4700;48.822;9.270;2023-07-28T16:36:50;19.70;1.00
9323;DHT22;4700;48.822;9.270;2023-07-28T16:39:36;19.30;1.00
9323;DHT22;4700;48.822;9.270;2023-07-28T16:42:21;19.50;1.00
9323;DHT22;4700;48.822;9.270;2023-07-28T16:45:09;19.20;1.00
9323;DHT22;4700;48.822;9.270;2023-07-28T16:47:55;20.00;1.00
9323;DHT22;4700;48.822;9.270;2023-07-28T16:50:41;19.30;1.00
9323;DHT22;4700;48.822;9.270;2023-07-28T16:53:26;19.50;1.00
9323;DHT22;4700;48.822;9.270;2023-07-28T16:56:12;19.50;1.00
9323;DHT22;4700;48.822;9.270;2023-07-28T16:58:57;19.20;1.00
9323;DHT22;4700;48.822;9.270;2023-07-28T17:01:47;19.60;1.00
9323;DHT22;4700;48.822;9.270;2023-07-28T17:04:33;19.70;1.00
9323;DHT22;4700;48.822;9.270;2023-07-28T17:07:18;19.50;1.00
9323;DHT22;4700;48.822;9.270;2023-07-28T17:10:05;19.50;1.00
9323;DHT22;4700;48.822;9.270;2023-07-28T17:12:51;19.50;1.00
9323;DHT22;4700;48.822;9.270;2023-07-28T17:15:36;19.50;1.00
9323;DHT22;4700;48.822;9.270;2023-07-28T17:18:23;19.20;1.00
9323;DHT22;4700;48.822;9.270;2023-07-28T17:23:56;19.40;1.00
9323;DHT22;4700;48.822;9.270;2023-07-28T17:26:44;19.50;1.00
9323;DHT22;4700;48.822;9.270;2023-07-28T17:29:29;19.30;1.00
9323;DHT22;4700;48.822;9.270;2023-07-28T17:32:15;19.60;1.00
9323;DHT22;4700;48.822;9.270;2023-07-28T17:35:03;19.80;1.00
9323;DHT22;4700;48.822;9.270;2023-07-28T17:37:49;19.60;1.00
9323;DHT22;4700;48.822;9.270;2023-07-28T17:40:34;19.80;1.00
9323;DHT22;4700;48.822;9.270;2023-07-28T17:46:06;19.50;1.00
9323;DHT22;4700;48.822;9.270;2023-07-28T17:48:51;19.50;1.00
9323;DHT22;4700;48.822;9.270;2023-07-28T17:51:38;19.50;1.00
9323;DHT22;4700;48.822;9.270;2023-07-28T17:54:24;19.50;1.00
9323;DHT22;4700;48.822;9.270;2023-07-28T17:57:09;19.60;1.00
9323;DHT22;4700;48.822;9.270;2023-07-28T17:59:55;19.70;1.00
9323;DHT22;4700;48.822;9.270;2023-07-28T18:02:40;19.80;1.00
9323;DHT22;4700;48.822;9.270;2023-07-28T18:05:26;19.50;1.00
9323;DHT22;4700;48.822;9.270;2023-07-28T18:08:13;19.80;1.00
9323;DHT22;4700;48.822;9.270;2023-07-28T18:10:59;19.80;1.00
9323;DHT22;4700;48.822;9.270;2023-07-28T18:13:44;19.70;1.00
9323;DHT22;4700;48.822;9.270;2023-07-28T18:16:30;19.70;1.00
9323;DHT22;4700;48.822;9.270;2023-07-28T18:19:16;19.70;1.00
9323;DHT22;4700;48.822;9.270;2023-07-28T18:22:02;19.70;1.00
9323;DHT22;4700;48.822;9.270;2023-07-28T18:24:49;19.70;1.00
9323;DHT22;4700;48.822;9.270;2023-07-28T18:27:35;19.70;1.00
9323;DHT22;4700;48.822;9.270;2023-07-28T18:30:15;19.70;1.00
9323;DHT22;4700;48.822;9.270;2023-07-28T18:33:00;19.90;1.00
9323;DHT22;4700;48.822;9.270;2023-07-28T18:38:33;19.70;1.00
9323;DHT22;4700;48.822;9.270;2023-07-28T18:41:20;19.70;1.00
9323;DHT22;4700;48.822;9.270;2023-07-28T18:44:06;19.60;1.00
9323;DHT22;4700;48.822;9.270;2023-07-28T18:46:51;19.50;1.00
9323;DHT22;4700;48.822;9.270;2023-07-28T18:49:37;19.50;1.00
9323;DHT22;4700;48.822;9.270;2023-07-28T18:52:22;19.50;1.00
9323;DHT22;4700;48.822;9.270;2023-07-28T18:55:09;19.30;1.00
9323;DHT22;4700;48.822;9.270;2023-07-28T18:57:56;19.10;1.00
9323;DHT22;4700;48.822;9.270;2023-07-28T19:00:42;19.10;1.00
9323;DHT22;4700;48.822;9.270;2023-07-28T19:03:28;18.90;1.00
9323;DHT22;4700;48.822;9.270;2023-07-28T19:06:15;19.00;1.00
9323;DHT22;4700;48.822;9.270;2023-07-28T19:09:03;18.80;1.00
9323;DHT22;4700;48.822;9.270;2023-07-28T19:11:49;18.80;1.00
9323;DHT22;4700;48.822;9.270;2023-07-28T19:14:37;18.80;1.00
9323;DHT22;4700;48.822;9.270;2023-07-28T19:17:23;18.70;1.00
9323;DHT22;4700;48.822;9.270;2023-07-28T19:20:09;18.80;1.00
9323;DHT22;4700;48.822;9.270;2023-07-28T19:22:55;18.70;1.00
9323;DHT22;4700;48.822;9.270;2023-07-28T19:25:40;18.70;1.00
9323;DHT22;4700;48.822;9.270;2023-07-28T19:28:26;18.70;1.00
9323;DHT22;4700;48.822;9.270;2023-07-28T19:31:13;18.80;1.00
9323;DHT22;4700;48.822;9.270;2023-07-28T19:33:58;18.70;1.00
9323;DHT22;4700;48.822;9.270;2023-07-28T19:36:44;18.70;1.00
9323;DHT22;4700;48.822;9.270;2023-07-28T19:39:29;18.70;1.00
9323;DHT22;4700;48.822;9.270;2023-07-28T19:42:15;18.80;1.00
9323;DHT22;4700;48.822;9.270;2023-07-28T19:45:00;18.70;1.00
9323;DHT22;4700;48.822;9.270;2023-07-28T19:47:47;18.80;1.00
9323;DHT22;4700;48.822;9.270;2023-07-28T19:50:33;18.80;1.00
9323;DHT22;4700;48.822;9.270;2023-07-28T19:53:18;18.90;1.00
9323;DHT22;4700;48.822;9.270;2023-07-28T19:56:04;18.80;1.00
9323;DHT22;4700;48.822;9.270;2023-07-28T19:58:50;19.00;1.00
9323;DHT22;4700;48.822;9.270;2023-07-28T20:01:36;18.70;1.00
9323;DHT22;4700;48.822;9.270;2023-07-28T20:04:23;18.70;1.00
9323;DHT22;4700;48.822;9.270;2023-07-28T20:07:10;18.70;1.00
9323;DHT22;4700;48.822;9.270;2023-07-28T20:09:56;18.70;1.00
9323;DHT22;4700;48.822;9.270;2023-07-28T20:12:41;18.70;1.00
9323;DHT22;4700;48.822;9.270;2023-07-28T20:15:27;18.70;1.00
9323;DHT22;4700;48.822;9.270;2023-07-28T20:18:13;18.60;1.00
9323;DHT22;4700;48.822;9.270;2023-07-28T20:21:03;18.60;1.00
9323;DHT22;4700;48.822;9.270;2023-07-28T20:23:50;18.60;1.00
9323;DHT22;4700;48.822;9.270;2023-07-28T20:26:35;18.50;1.00
9323;DHT22;4700;48.822;9.270;2023-07-28T20:29:22;18.50;1.00
9323;DHT22;4700;48.822;9.270;2023-07-28T20:32:09;18.30;1.00
9323;DHT22;4700;48.822;9.270;2023-07-28T20:34:55;18.70;1.00
9323;DHT22;4700;48.822;9.270;2023-07-28T20:37:42;18.20;1.00
9323;DHT22;4700;48.822;9.270;2023-07-28T20:40:29;18.20;1.00